Time;durP1;ratioP1;P1;durP2;ratioP2;P2;SDS_P1;SDS_P2;PMS_P1;PMS_P2;Temp;Humidity;BMP_temperature;BMP_pressure;BME280_temperature;BME280_humidity;BME280_pressure;Samples;Min_cycle;Max_cycle;Signal;HPM_P1;HPM_P2
2024/01/14 00:14:01;;;;;;;98.37;44.77;;;3.90;99.90;;;;;;5076040;28;39098;-84
2024/01/14 00:17:07;;;;;;;92.33;43.50;;;3.90;99.90;;;;;;5049856;28;39000;-83
2024/01/14 00:19:50;;;;;;;;;;;;;;;;;;;;;
2024/01/14 00:32:59;;;;;;;103.07;46.67;;;4.00;99.90;;;;;;5056847;27;50309;-84
2024/01/14 00:35:49;;;;;;;108.43;47.97;;;4.00;99.90;;;;;;5045370;28;38343;-84
2024/01/14 00:42:26;;;;;;;101.07;44.63;;;4.00;99.90;;;;;;5028766;28;48911;-84
2024/01/14 00:45:22;;;;;;;100.87;46.33;;;4.00;99.90;;;;;;5044188;28;50130;-84
2024/01/14 00:48:03;;;;;;;92.03;44.80;;;3.90;99.90;;;;;;5011532;28;48839;-83
2024/01/14 00:50:56;;;;;;;98.70;45.95;;;4.00;99.90;;;;;;5037407;28;48812;-83
2024/01/14 00:53:33;;;;;;;85.20;42.80;;;4.00;99.90;;;;;;5037854;28;39691;-84
2024/01/14 00:59:47;;;;;;;103.63;46.83;;;4.00;99.90;;;;;;5042235;28;48955;-84
2024/01/14 01:02:47;;;;;;;;;;;;;;;;;;;;;
2024/01/14 01:05:35;;;;;;;92.40;44.70;;;4.00;99.90;;;;;;5049925;28;38864;-83
2024/01/14 01:08:27;;;;;;;;;;;;;;;;;;;;;
2024/01/14 01:14:45;;;;;;;95.27;44.93;;;4.00;99.90;;;;;;5018312;28;50466;-83
2024/01/14 01:17:42;;;;;;;95.37;44.27;;;3.90;99.90;;;;;;5077009;28;38555;-82
2024/01/14 01:20:48;;;;;;;105.13;47.80;;;3.90;99.90;;;;;;5049693;28;39047;-82
2024/01/14 01:23:43;;;;;;;92.73;44.93;;;3.90;99.90;;;;;;5024780;28;37585;-83
2024/01/14 01:27:03;;;;;;;;;;;;;;;;;;;;;
2024/01/14 01:39:14;;;;;;;91.70;42.00;;;3.80;99.90;;;;;;4995087;28;38629;-82
2024/01/14 01:42:06;;;;;;;;;;;;;;;;;;;;;
2024/01/14 01:45:12;;;;;;;92.05;44.03;;;3.70;99.90;;;;;;5053048;28;48010;-83
2024/01/14 01:48:13;;;;;;;98.10;44.07;;;3.80;99.90;;;;;;5083683;28;49215;-82
2024/01/14 01:51:04;;;;;;;99.77;47.10;;;3.80;99.90;;;;;;5044989;28;49398;-83
2024/01/14 01:53:36;;;;;;;91.80;45.53;;;3.80;99.90;;;;;;5045465;27;48897;-82
2024/01/14 01:56:11;;;;;;;;;;;3.80;99.90;;;;;;5082303;28;39433;-81
2024/01/14 01:59:35;;;;;;;90.23;44.77;;;3.80;99.90;;;;;;5080384;28;39714;-82
2024/01/14 02:04:42;;;;;;;96.93;45.93;;;3.80;99.90;;;;;;5070064;28;20036;-82
2024/01/14 02:07:41;;;;;;;102.60;48.40;;;3.80;99.90;;;;;;5075213;28;38959;-82
2024/01/14 02:10:08;;;;;;;113.83;49.27;;;3.80;99.90;;;;;;5066187;28;38855;-81
2024/01/14 02:12:34;;;;;;;112.90;48.83;;;3.80;99.90;;;;;;5071176;28;38130;-81
2024/01/14 02:15:15;;;;;;;92.33;45.60;;;3.80;99.90;;;;;;5072048;28;37098;-81
2024/01/14 02:17:42;;;;;;;85.60;44.00;;;3.80;99.90;;;;;;5082252;28;47433;-81
2024/01/14 02:20:09;;;;;;;97.93;47.17;;;3.80;99.90;;;;;;5074811;28;37164;-81
2024/01/14 02:23:02;;;;;;;87.77;43.97;;;3.80;99.90;;;;;;5068440;28;38376;-81
2024/01/14 02:25:34;;;;;;;;;;;3.80;99.90;;;;;;5066458;28;47769;-81
2024/01/14 02:28:00;;;;;;;97.67;42.93;;;3.80;99.90;;;;;;5067917;28;39626;-82
2024/01/14 02:30:27;;;;;;;79.87;41.47;;;3.90;99.90;;;;;;5070345;28;37937;-81
2024/01/14 02:32:59;;;;;;;95.20;44.83;;;3.90;99.90;;;;;;5061176;28;37263;-81
2024/01/14 02:35:25;;;;;;;90.40;44.20;;;3.90;99.90;;;;;;5067254;28;37960;-82
2024/01/14 02:37:52;;;;;;;92.07;43.87;;;3.90;99.90;;;;;;5072346;28;39034;-81
2024/01/14 02:40:19;;;;;;;80.23;41.33;;;3.90;99.90;;;;;;5070104;28;38381;-81
2024/01/14 02:42:45;;;;;;;85.07;43.17;;;3.90;99.90;;;;;;5072188;28;36980;-81
2024/01/14 02:45:30;;;;;;;86.97;43.37;;;3.80;99.90;;;;;;5071228;28;37575;-81
2024/01/14 02:48:04;;;;;;;108.33;46.50;;;3.70;99.90;;;;;;5076405;28;38918;-81
2024/01/14 02:50:30;;;;;;;87.67;43.50;;;3.70;99.90;;;;;;5088501;28;48497;-81
2024/01/14 02:53:02;;;;;;;85.23;42.33;;;3.60;99.90;;;;;;5071462;28;38321;-81
2024/01/14 02:55:29;;;;;;;110.30;48.28;;;3.60;99.90;;;;;;5078228;28;48413;-81
2024/01/14 02:57:57;;;;;;;87.33;43.23;;;3.50;99.90;;;;;;5085125;28;39322;-81
2024/01/14 03:00:38;;;;;;;85.60;43.47;;;3.50;99.90;;;;;;5062816;28;38304;-81
2024/01/14 03:03:10;;;;;;;88.40;43.83;;;3.50;99.90;;;;;;5094028;28;38052;-82
2024/01/14 03:05:36;;;;;;;90.82;43.20;;;3.40;99.90;;;;;;5075768;28;37622;-81
2024/01/14 03:08:04;;;;;;;86.23;42.40;;;3.50;99.90;;;;;;5080691;28;40191;-81
2024/01/14 03:10:41;;;;;;;94.37;45.43;;;3.50;99.90;;;;;;5085898;28;39941;-81
2024/01/14 03:13:16;;;;;;;99.40;45.53;;;3.50;99.90;;;;;;5076756;28;37184;-81
2024/01/14 03:15:46;;;;;;;102.77;47.30;;;3.50;99.90;;;;;;5069378;28;37801;-81
2024/01/14 03:18:12;;;;;;;108.33;46.13;;;3.40;99.90;;;;;;5070827;28;38225;-82
2024/01/14 03:20:46;;;;;;;85.53;41.90;;;3.40;99.90;;;;;;5073959;28;38395;-81
2024/01/14 03:23:18;;;;;;;89.17;42.43;;;3.40;99.90;;;;;;5088304;28;38136;-81
2024/01/14 03:25:44;;;;;;;82.30;39.00;;;3.40;99.90;;;;;;5077028;28;39271;-81
2024/01/14 03:28:13;;;;;;;88.47;40.97;;;3.30;99.90;;;;;;5079348;28;40001;-82
2024/01/14 03:30:52;;;;;;;76.83;38.90;;;3.20;99.90;;;;;;5073799;28;38296;-80
2024/01/14 03:33:31;;;;;;;92.73;41.13;;;3.20;99.90;;;;;;5072146;28;37846;-82
2024/01/14 03:36:02;;;;;;;96.17;42.60;;;3.20;99.90;;;;;;5106246;27;37169;-82
2024/01/14 03:38:38;;;;;;;95.67;43.73;;;3.20;99.90;;;;;;5075006;28;51183;-81
2024/01/14 03:48:53;;;;;;;88.53;42.47;;;3.40;99.90;;;;;;6134449;22;20020;-81
2024/01/14 03:51:21;;;;;;;92.70;41.43;;;3.40;99.90;;;;;;5074734;28;36760;-84
2024/01/14 03:56:36;;;;;;;93.60;41.77;;;3.30;99.90;;;;;;5136974;27;20061;-82
2024/01/14 04:04:16;;;;;;;88.17;40.87;;;3.30;99.90;;;;;;5826499;22;20034;-81
2024/01/14 04:07:02;;;;;;;103.57;45.03;;;3.30;99.90;;;;;;5080315;28;38045;-81
2024/01/14 04:09:41;;;;;;;89.83;41.27;;;3.30;99.90;;;;;;5083987;28;48163;-82
2024/01/14 04:12:22;;;;;;;89.47;43.27;;;3.20;99.90;;;;;;5067745;28;38382;-83
2024/01/14 04:14:54;;;;;;;90.77;41.80;;;3.30;99.90;;;;;;5086356;28;38236;-82
2024/01/14 04:17:51;;;;;;;86.10;42.47;;;3.40;99.90;;;;;;5097636;28;37903;-82
2024/01/14 04:20:23;;;;;;;100.50;44.83;;;3.40;99.90;;;;;;5065063;28;38084;-82
2024/01/14 04:22:50;;;;;;;84.65;43.50;;;3.40;99.90;;;;;;5081870;28;39703;-83
2024/01/14 04:25:35;;;;;;;94.83;44.50;;;3.50;99.90;;;;;;5064233;28;36982;-83
2024/01/14 04:28:02;;;;;;;105.80;47.17;;;3.50;99.90;;;;;;5081221;28;36588;-82
2024/01/14 04:30:40;;;;;;;93.00;45.57;;;3.50;99.90;;;;;;5092901;28;38323;-83
2024/01/14 04:33:07;;;;;;;91.80;45.30;;;3.60;99.90;;;;;;5092176;27;38099;-81
2024/01/14 04:35:34;;;;;;;107.83;47.57;;;3.60;99.90;;;;;;5104510;28;38940;-82
2024/01/14 04:38:35;;;;;;;93.70;46.80;;;3.50;99.90;;;;;;5072396;28;37469;-82
2024/01/14 04:41:30;;;;;;;99.50;45.17;;;3.40;99.90;;;;;;5061085;28;48726;-81
2024/01/14 04:43:56;;;;;;;95.47;44.43;;;3.50;99.90;;;;;;5082360;28;40271;-82
2024/01/14 04:50:05;;;;;;;98.80;43.43;;;3.50;99.90;;;;;;5069632;28;50106;-83
2024/01/14 04:55:12;;;;;;;100.83;44.10;;;3.50;99.90;;;;;;5212281;22;20057;-82
2024/01/14 04:57:48;;;;;;;93.50;43.07;;;3.50;99.90;;;;;;5119185;28;37710;-82
2024/01/14 05:00:49;;;;;;;87.97;44.00;;;3.50;99.90;;;;;;5099854;28;38879;-82
2024/01/14 05:03:19;;;;;;;88.20;45.13;;;3.50;99.90;;;;;;5103520;28;48714;-82
2024/01/14 05:05:52;;;;;;;101.50;47.17;;;3.50;99.90;;;;;;5116788;27;40458;-83
2024/01/14 05:08:26;;;;;;;94.43;43.30;;;3.50;99.90;;;;;;5117771;27;39181;-82
2024/01/14 05:10:56;;;;;;;103.00;45.80;;;3.50;99.90;;;;;;5106507;27;36478;-82
2024/01/14 05:13:41;;;;;;;88.03;42.73;;;3.50;99.90;;;;;;5097767;27;39173;-81
2024/01/14 05:16:22;;;;;;;101.07;42.90;;;3.40;99.90;;;;;;5091084;27;38430;-81
2024/01/14 05:18:50;;;;;;;87.30;41.17;;;3.40;99.90;;;;;;5118870;27;39318;-81
2024/01/14 05:21:27;;;;;;;95.30;44.17;;;3.40;99.90;;;;;;5114222;27;38807;-81
2024/01/14 05:23:58;;;;;;;91.97;41.73;;;3.50;99.90;;;;;;5099066;28;38730;-81
2024/01/14 05:26:31;;;;;;;97.13;42.77;;;3.50;99.90;;;;;;5098599;27;38513;-82
2024/01/14 05:29:03;;;;;;;93.60;41.17;;;3.50;99.90;;;;;;5095292;27;39249;-82
2024/01/14 05:31:33;;;;;;;88.38;40.65;;;3.60;99.90;;;;;;5093275;27;48305;-82
2024/01/14 05:34:02;;;;;;;80.77;38.40;;;3.60;99.90;;;;;;5088195;27;38757;-82
2024/01/14 05:36:31;;;;;;;102.77;40.30;;;3.50;99.90;;;;;;5101124;28;47482;-82
2024/01/14 05:46:51;;;;;;;84.43;37.80;;;3.70;99.90;;;;;;6090751;22;20048;-81
2024/01/14 05:49:25;;;;;;;78.30;35.37;;;3.70;99.90;;;;;;5110713;28;36759;-81
2024/01/14 05:52:07;;;;;;;82.53;37.47;;;3.70;99.90;;;;;;5098298;27;37594;-83
2024/01/14 05:58:02;;;;;;;76.15;35.50;;;3.70;99.90;;;;;;5132050;28;50657;-82
2024/01/14 06:00:37;;;;;;;74.28;30.13;;;3.70;99.90;;;;;;5110695;27;49176;-81
2024/01/14 06:03:17;;;;;;;89.80;37.80;;;3.70;99.90;;;;;;5110162;27;36583;-81
2024/01/14 06:05:55;;;;;;;79.03;36.93;;;3.70;99.90;;;;;;5093695;28;38926;-82
2024/01/14 06:23:29;;;;;;;94.65;37.05;;;3.60;99.90;;;;;;5913153;22;20055;31
2024/01/14 06:41:36;;;;;;;79.83;35.90;;;3.60;99.90;;;;;;5466137;22;20049;-82
2024/01/14 06:44:24;;;;;;;69.72;33.95;;;3.60;99.90;;;;;;5065072;27;39173;-81
2024/01/14 06:52:05;;;;;;;78.87;35.77;;;3.60;99.90;;;;;;5212601;22;20056;-82
2024/01/14 06:55:13;;;;;;;76.83;36.33;;;3.50;99.90;;;;;;5066760;28;47500;-83
2024/01/14 06:58:30;;;;;;;85.83;36.13;;;3.50;99.90;;;;;;5087341;28;50221;-82
2024/01/14 07:47:55;;;;;;;105.00;42.00;;;3.40;99.90;;;;;;6040072;22;20013;-83
2024/01/14 10:40:37;;;;;;;75.70;35.63;;;3.70;99.90;;;;;;5838000;23;20041;-83
2024/01/14 10:45:40;;;;;;;76.50;34.73;;;3.60;99.90;;;;;;5300003;22;20045;-82
2024/01/14 10:48:52;;;;;;;70.47;33.33;;;3.60;99.90;;;;;;5008023;28;37372;-81
2024/01/14 10:52:05;;;;;;;73.40;33.60;;;3.60;99.90;;;;;;5004048;28;41115;-83
2024/01/14 10:55:21;;;;;;;72.17;35.07;;;3.60;99.90;;;;;;5001055;28;47756;-83
2024/01/14 11:01:44;;;;;;;67.20;32.33;;;3.60;99.90;;;;;;4994949;28;50181;-81
2024/01/14 11:04:56;;;;;;;68.80;33.80;;;3.60;99.90;;;;;;5012072;28;40096;-81
2024/01/14 11:07:26;;;;;;;68.60;33.60;;;3.70;99.90;;;;;;5021399;28;39823;-82
2024/01/14 11:13:04;;;;;;;69.20;33.03;;;3.70;99.90;;;;;;5238761;23;20042;-82
2024/01/14 11:16:24;;;;;;;59.30;30.75;;;3.70;99.90;;;;;;5006930;28;48728;-82
2024/01/14 11:19:30;;;;;;;59.60;31.37;;;3.70;99.90;;;;;;5029017;28;48883;-83
2024/01/14 11:22:20;;;;;;;73.90;35.77;;;3.80;99.90;;;;;;4999034;28;48198;-82
2024/01/14 11:25:07;;;;;;;56.07;30.67;;;3.80;99.90;;;;;;5009831;28;48608;-82
2024/01/14 11:27:34;;;;;;;63.10;31.93;;;3.80;99.90;;;;;;5020410;28;48919;-81
2024/01/14 11:30:47;;;;;;;61.10;30.63;;;3.80;99.90;;;;;;5013916;28;38718;-83
2024/01/14 11:33:38;;;;;;;58.38;30.50;;;3.80;99.90;;;;;;5003803;28;47407;-82
2024/01/14 11:36:49;;;;;;;57.60;30.33;;;3.80;99.90;;;;;;5011915;28;37373;-81
2024/01/14 11:39:20;;;;;;;59.43;29.50;;;3.80;99.90;;;;;;5026431;28;38926;-82
2024/01/14 11:41:53;;;;;;;56.77;29.53;;;3.80;99.90;;;;;;5009105;28;39635;-82
2024/01/14 11:44:36;;;;;;;64.10;31.60;;;3.70;99.90;;;;;;5016480;28;37896;-81
2024/01/14 11:50:19;;;;;;;60.20;28.17;;;3.80;99.90;;;;;;5013452;28;41244;-81
2024/01/14 11:52:48;;;;;;;56.37;27.53;;;3.90;99.90;;;;;;5006559;28;36242;-82
2024/01/14 11:55:33;;;;;;;65.60;31.00;;;3.90;99.90;;;;;;5012406;28;38335;-82
2024/01/14 11:58:13;;;;;;;56.50;27.93;;;4.00;99.90;;;;;;5007270;28;37755;-81
2024/01/14 12:00:52;;;;;;;64.13;30.43;;;3.90;99.90;;;;;;5016218;28;48383;-82
2024/01/14 12:03:19;;;;;;;68.23;32.60;;;4.00;99.90;;;;;;5000413;28;38230;-81
2024/01/14 12:05:56;;;;;;;;;;;;;;;;;;;;;
2024/01/14 12:08:26;;;;;;;71.83;35.07;;;3.90;99.90;;;;;;5006285;28;37340;-81
2024/01/14 12:11:01;;;;;;;62.33;33.27;;;3.90;99.90;;;;;;5017362;28;38720;-82
2024/01/14 12:13:27;;;;;;;70.10;33.70;;;3.90;99.90;;;;;;5002730;28;48237;-82
2024/01/14 12:16:01;;;;;;;62.47;31.53;;;3.90;99.90;;;;;;5001979;28;36834;-82
2024/01/14 12:18:50;;;;;;;60.13;29.83;;;3.90;99.90;;;;;;5008682;28;47342;-83
2024/01/14 12:21:19;;;;;;;64.50;30.80;;;3.80;99.90;;;;;;5012029;28;39495;-81
2024/01/14 12:23:57;;;;;;;70.17;32.60;;;3.90;99.90;;;;;;5014023;28;38985;-82
2024/01/14 12:26:28;;;;;;;63.30;30.30;;;3.90;99.90;;;;;;5080403;23;36887;-81
2024/01/14 12:31:45;;;;;;;78.17;32.90;;;3.90;99.90;;;;;;5814542;22;20037;-82
2024/01/14 12:34:44;;;;;;;61.90;30.15;;;3.80;99.90;;;;;;5003092;28;38330;-83
2024/01/14 12:37:34;;;;;;;60.10;30.70;;;3.80;99.90;;;;;;4961489;28;49008;-82
2024/01/14 12:40:37;;;;;;;62.60;30.77;;;3.90;99.90;;;;;;4980690;28;36617;-82
2024/01/14 12:43:13;;;;;;;;;;;3.80;99.90;;;;;;4960215;28;40074;-82
2024/01/14 12:46:15;;;;;;;64.23;31.90;;;3.80;99.90;;;;;;4947382;28;39977;-82
2024/01/14 12:49:12;;;;;;;61.13;30.60;;;3.80;99.90;;;;;;4978830;28;49028;-83
2024/01/14 12:57:09;;;;;;;67.40;32.80;;;3.80;99.90;;;;;;5725389;23;20046;-81
2024/01/14 13:00:12;;;;;;;73.35;34.70;;;3.80;99.90;;;;;;4999980;28;37897;-82
2024/01/14 13:19:07;;;;;;;77.33;35.90;;;4.10;99.90;;;;;;5533223;23;19925;-82
2024/01/14 13:21:39;;;;;;;71.73;34.80;;;4.10;99.90;;;;;;4997762;28;48489;-83
2024/01/14 13:24:17;;;;;;;77.40;33.10;;;4.10;99.90;;;;;;4955241;28;38212;-83
2024/01/14 14:01:18;;;;;;;62.83;28.93;;;4.40;99.90;;;;;;5306599;23;20111;-82
2024/01/14 14:17:21;;;;;;;54.33;26.83;;;4.30;99.90;;;;;;5134550;23;20047;-83
2024/01/14 14:19:56;;;;;;;49.10;26.02;;;4.30;99.90;;;;;;4968255;28;47774;-82
2024/01/14 14:38:45;;;;;;;51.57;27.60;;;4.20;99.90;;;;;;5672764;23;20036;-84
2024/01/14 14:41:56;;;;;;;57.40;27.33;;;4.20;99.90;;;;;;4953535;28;39374;-84
2024/01/14 15:01:25;;;;;;;;;;;;;;;;;;;;;
2024/01/14 15:17:42;;;;;;;;;;;;;;;;;;;;;
2024/01/14 15:21:10;;;;;;;38.23;19.17;;;4.00;99.90;;;;;;4988460;28;39817;-82
2024/01/14 16:22:29;;;;;;;4.47;0.83;;;4.10;99.90;;;;;;5238325;23;20066;-81
2024/01/14 16:26:04;;;;;;;;;;;;;;;;;;;;;
2024/01/14 16:29:10;;;;;;;8.07;3.87;;;4.10;99.90;;;;;;4956666;28;50274;-82
2024/01/14 16:42:12;;;;;;;6.67;1.57;;;4.20;99.90;;;;;;5598492;23;20051;-80
2024/01/14 16:45:04;;;;;;;;;;;;;;;;;;;;;
2024/01/14 16:54:01;;;;;;;11.98;5.55;;;4.10;99.90;;;;;;1318709;26;20047;-78
2024/01/14 16:56:32;;;;;;;10.47;3.83;;;4.20;99.90;;;;;;4999211;28;47140;-79
2024/01/14 16:59:03;;;;;;;10.23;2.40;;;4.30;99.90;;;;;;5000854;28;38506;-79
2024/01/14 17:01:30;;;;;;;255.83;37.27;;;4.30;99.90;;;;;;5001675;28;48767;-80
2024/01/14 17:04:24;;;;;;;;;;;;;;;;;;;;;
2024/01/14 17:06:54;;;;;;;697.27;60.10;;;5.10;99.90;;;;;;4995540;28;48802;-80
2024/01/14 17:09:27;;;;;;;83.22;26.80;;;5.20;99.90;;;;;;5005703;28;38357;-79
2024/01/14 17:12:12;;;;;;;59.27;19.27;;;5.50;99.90;;;;;;5007266;28;38524;-79
2024/01/14 17:15:12;;;;;;;296.47;83.23;;;5.00;99.90;;;;;;5032233;28;47722;-79
2024/01/14 17:17:51;;;;;;;1999.90;261.23;;;4.90;99.90;;;;;;4998645;28;48726;-80
2024/01/14 17:20:25;;;;;;;1893.47;164.77;;;5.30;99.90;;;;;;5021945;28;39181;-79
2024/01/14 17:22:55;;;;;;;157.52;24.80;;;5.80;99.90;;;;;;5002295;28;37009;-79
2024/01/14 17:25:22;;;;;;;75.03;24.27;;;5.50;99.90;;;;;;5007490;28;38193;-78
2024/01/14 17:27:49;;;;;;;22.37;6.63;;;5.50;99.90;;;;;;5020469;28;37811;-79
2024/01/14 17:30:15;;;;;;;13.20;3.57;;;5.10;99.90;;;;;;4987915;28;37093;-78
2024/01/14 17:32:42;;;;;;;12.60;2.67;;;4.90;99.90;;;;;;4998219;28;38727;-78
2024/01/14 17:35:09;;;;;;;10.23;2.53;;;4.60;99.90;;;;;;5015136;28;37680;-79
2024/01/14 17:37:37;;;;;;;7.57;1.77;;;4.40;99.90;;;;;;5021429;28;41535;-80
2024/01/14 17:40:04;;;;;;;5.10;1.40;;;4.30;99.90;;;;;;5011171;28;38788;-81
2024/01/14 17:42:34;;;;;;;5.90;1.63;;;4.30;99.90;;;;;;5013456;28;47044;-79
2024/01/14 17:45:50;;;;;;;;;;;;;;;;;;;;;
2024/01/14 17:48:17;;;;;;;6.07;1.73;;;4.20;99.90;;;;;;4998920;28;40284;-81
2024/01/14 17:51:04;;;;;;;5.43;1.57;;;4.20;99.90;;;;;;5011886;28;37909;-81
2024/01/14 17:53:31;;;;;;;5.53;1.23;;;4.20;99.90;;;;;;5014803;28;47418;-82
2024/01/14 17:55:59;;;;;;;6.97;1.43;;;4.20;99.90;;;;;;5006917;28;36285;-80
2024/01/14 17:58:27;;;;;;;5.50;1.07;;;4.20;99.90;;;;;;4984257;28;40678;-80
2024/01/14 18:00:57;;;;;;;9.43;1.20;;;4.20;99.90;;;;;;5000224;28;38681;-80
2024/01/14 18:03:51;;;;;;;9.23;1.43;;;4.20;99.90;;;;;;4997839;28;37659;-80
2024/01/14 18:06:58;;;;;;;6.97;1.27;;;4.20;99.90;;;;;;5002856;28;38289;-83
2024/01/14 18:09:30;;;;;;;6.43;1.20;;;4.10;99.90;;;;;;5016001;28;49509;-81
2024/01/14 18:12:07;;;;;;;3.70;1.33;;;4.10;99.90;;;;;;5011052;28;38896;-82
2024/01/14 18:15:03;;;;;;;2.53;0.90;;;4.10;99.90;;;;;;4981202;28;49262;-81
2024/01/14 18:17:43;;;;;;;2.47;0.70;;;4.10;99.90;;;;;;4981141;28;48930;-81
2024/01/14 18:20:16;;;;;;;4.83;0.80;;;4.00;99.90;;;;;;4966782;28;38571;-81
2024/01/14 18:22:53;;;;;;;5.10;1.07;;;3.90;99.90;;;;;;4985775;28;38075;-81
2024/01/14 18:25:44;;;;;;;;;;;;;;;;;;;;;
2024/01/14 18:28:35;;;;;;;2.20;0.80;;;3.90;99.90;;;;;;5011344;28;38710;-82
2024/01/14 18:31:30;;;;;;;3.60;1.40;;;4.00;99.90;;;;;;5006194;28;39319;-81
2024/01/14 18:34:26;;;;;;;2.00;0.80;;;4.00;99.90;;;;;;4984586;28;38239;-81
2024/01/14 18:36:54;;;;;;;7.30;1.63;;;4.00;99.90;;;;;;5002611;28;50216;-79
2024/01/14 18:39:34;;;;;;;5.70;1.80;;;4.10;99.90;;;;;;5003598;28;37410;-80
2024/01/14 18:42:02;;;;;;;12.97;2.00;;;4.10;99.90;;;;;;5017223;28;40636;-80
2024/01/14 18:44:31;;;;;;;8.77;1.70;;;4.10;99.90;;;;;;4984577;28;48425;-80
2024/01/14 18:47:20;;;;;;;6.20;2.00;;;4.10;99.90;;;;;;5017086;28;38391;-80
2024/01/14 18:49:47;;;;;;;12.20;1.47;;;4.20;99.90;;;;;;5024053;28;47867;-80
2024/01/14 18:52:14;;;;;;;10.50;1.40;;;4.20;99.90;;;;;;5021362;28;40598;-80
2024/01/14 18:54:49;;;;;;;6.10;1.43;;;4.30;99.90;;;;;;5024662;28;39189;-81
2024/01/14 18:57:16;;;;;;;9.03;1.97;;;4.40;99.90;;;;;;5013003;28;37133;-80
2024/01/14 18:59:55;;;;;;;10.97;2.27;;;4.40;99.90;;;;;;5004808;28;36375;-81
2024/01/14 19:02:31;;;;;;;10.33;2.90;;;4.30;99.90;;;;;;4977416;28;39328;-80
2024/01/14 19:04:58;;;;;;;11.70;2.33;;;4.40;99.90;;;;;;5001574;28;37358;-80
2024/01/14 19:07:25;;;;;;;9.73;2.10;;;4.50;99.90;;;;;;5003257;28;37305;-81
2024/01/14 19:09:51;;;;;;;13.50;2.60;;;4.50;99.90;;;;;;5021771;28;36163;-80
2024/01/14 19:12:19;;;;;;;9.70;2.70;;;4.50;99.90;;;;;;5024729;28;38108;-80
2024/01/14 19:14:48;;;;;;;9.77;3.80;;;4.60;99.90;;;;;;5006461;28;36933;-81
2024/01/14 19:17:15;;;;;;;16.40;2.73;;;4.60;99.90;;;;;;5007946;28;38645;-80
2024/01/14 19:19:51;;;;;;;10.07;2.67;;;4.70;99.90;;;;;;5012178;28;37198;-79
2024/01/14 19:22:18;;;;;;;12.43;2.73;;;4.70;99.90;;;;;;4992278;28;37948;-79
2024/01/14 19:24:49;;;;;;;6.83;1.40;;;4.70;99.90;;;;;;4996259;28;38989;-80
2024/01/14 19:27:27;;;;;;;13.80;1.60;;;4.80;99.90;;;;;;5021350;28;38201;-81
2024/01/14 19:30:01;;;;;;;6.83;1.20;;;4.80;99.90;;;;;;5008168;28;38330;-79
2024/01/14 19:32:38;;;;;;;10.73;1.30;;;4.90;99.90;;;;;;4994556;28;20045;-80
2024/01/14 19:35:05;;;;;;;11.87;1.87;;;4.90;99.90;;;;;;4984208;28;38693;-80
2024/01/14 19:38:12;;;;;;;6.50;1.63;;;4.90;99.90;;;;;;5005169;28;47549;-81
2024/01/14 19:40:47;;;;;;;5.50;1.37;;;4.90;99.90;;;;;;4970040;28;46758;-81
2024/01/14 19:43:14;;;;;;;7.13;1.77;;;4.80;99.90;;;;;;5011846;28;38237;-80
2024/01/14 19:45:44;;;;;;;7.43;2.00;;;4.80;99.90;;;;;;5015113;28;37710;-81
2024/01/14 19:48:17;;;;;;;5.97;1.43;;;4.70;99.90;;;;;;4998960;28;36950;-82
2024/01/14 19:50:55;;;;;;;;;;;4.80;99.90;;;;;;5006854;28;36238;-80
2024/01/14 19:54:27;;;;;;;9.93;1.70;;;4.80;99.90;;;;;;5004767;28;40126;-81
2024/01/14 19:56:56;;;;;;;6.27;1.20;;;4.80;99.90;;;;;;4988926;28;49387;-80
2024/01/14 19:59:45;;;;;;;3.33;0.60;;;4.50;99.90;;;;;;4993627;28;36924;-81
2024/01/14 20:05:31;;;;;;;8.93;1.30;;;4.20;99.90;;;;;;5851451;23;20054;-80
2024/01/14 20:08:10;;;;;;;8.03;1.53;;;4.20;99.90;;;;;;4980281;28;38671;-81
2024/01/14 20:10:43;;;;;;;8.03;1.43;;;4.20;99.90;;;;;;4942662;28;48501;-81
2024/01/14 20:13:31;;;;;;;5.85;1.00;;;4.10;99.90;;;;;;4952189;28;36644;-82
2024/01/14 20:16:08;;;;;;;7.83;1.20;;;4.00;99.90;;;;;;4941136;28;38262;-80
2024/01/14 20:18:37;;;;;;;6.47;1.13;;;4.00;99.90;;;;;;4955667;28;47677;-81
2024/01/14 20:21:12;;;;;;;7.03;1.43;;;3.90;99.90;;;;;;4980434;28;36944;-80
2024/01/14 20:23:44;;;;;;;3.67;1.50;;;3.90;99.90;;;;;;4963349;28;37085;-80
2024/01/14 20:26:13;;;;;;;9.17;1.50;;;4.00;99.90;;;;;;4978008;28;38176;-79
2024/01/14 20:28:39;;;;;;;9.90;1.20;;;4.10;99.90;;;;;;4981115;28;39465;-80
2024/01/14 20:31:08;;;;;;;11.90;1.60;;;4.00;99.90;;;;;;4969728;28;37810;-79
2024/01/14 20:33:34;;;;;;;5.13;1.37;;;4.00;99.90;;;;;;4983971;28;37194;-80
2024/01/14 20:36:01;;;;;;;10.00;1.83;;;3.90;99.90;;;;;;4965978;28;37986;-78
2024/01/14 20:38:28;;;;;;;12.83;2.00;;;3.90;99.90;;;;;;4973919;28;49354;-81
2024/01/14 20:41:05;;;;;;;5.13;1.57;;;3.90;99.90;;;;;;4982658;28;39289;-81
2024/01/14 20:43:32;;;;;;;8.13;2.30;;;3.90;99.90;;;;;;4971248;28;48626;-80
2024/01/14 20:46:00;;;;;;;8.53;2.10;;;4.00;99.90;;;;;;4984322;28;39058;-80
2024/01/14 20:48:26;;;;;;;12.30;2.33;;;3.90;99.90;;;;;;4994217;28;39127;-79
2024/01/14 20:50:55;;;;;;;12.83;1.87;;;4.10;99.90;;;;;;4986669;28;37792;-79
2024/01/14 20:53:21;;;;;;;2.97;0.83;;;4.10;99.90;;;;;;4983673;28;36507;-80
2024/01/14 20:55:51;;;;;;;4.00;0.60;;;4.00;99.90;;;;;;4990512;28;37487;-80
2024/01/14 20:58:21;;;;;;;3.33;0.80;;;3.80;99.90;;;;;;4976833;28;39127;-79
2024/01/14 21:00:47;;;;;;;4.50;0.67;;;3.60;99.90;;;;;;4970421;28;36704;-79
2024/01/14 21:03:14;;;;;;;9.23;1.57;;;3.40;99.90;;;;;;4966595;28;37001;-78
2024/01/14 21:05:41;;;;;;;9.33;0.97;;;3.40;99.90;;;;;;4969718;28;38126;-79
2024/01/14 21:08:07;;;;;;;5.63;0.70;;;3.40;99.90;;;;;;4977318;28;37893;-79
2024/01/14 21:10:36;;;;;;;6.23;1.10;;;3.30;99.90;;;;;;4978805;28;37020;-79
2024/01/14 21:13:05;;;;;;;5.77;1.30;;;3.40;99.90;;;;;;4977831;28;37555;-79
2024/01/14 21:15:32;;;;;;;5.97;0.83;;;3.40;99.90;;;;;;4981558;28;37719;-79
2024/01/14 21:17:58;;;;;;;6.60;0.80;;;3.40;99.90;;;;;;4975108;28;38570;-79
2024/01/14 21:20:26;;;;;;;2.13;0.70;;;3.30;99.90;;;;;;4987058;28;38237;-80
2024/01/14 21:22:52;;;;;;;4.70;0.70;;;3.30;99.90;;;;;;4979646;28;36166;-80
2024/01/14 21:25:18;;;;;;;5.20;1.00;;;3.20;99.90;;;;;;4973465;28;37882;-80
2024/01/14 21:27:44;;;;;;;5.23;0.90;;;3.30;99.90;;;;;;4977043;28;37481;-79
2024/01/14 21:30:14;;;;;;;7.23;0.80;;;3.40;99.90;;;;;;4972592;28;38215;-79
2024/01/14 21:32:40;;;;;;;6.43;0.80;;;3.50;99.90;;;;;;4966334;28;37708;-80
2024/01/14 21:35:06;;;;;;;5.20;0.87;;;3.50;99.90;;;;;;4976427;28;38924;-79
2024/01/14 21:37:32;;;;;;;7.37;1.10;;;3.50;99.90;;;;;;4974517;28;38660;-80
2024/01/14 21:39:59;;;;;;;5.83;0.87;;;3.50;99.90;;;;;;4968966;28;39492;-78
2024/01/14 21:42:25;;;;;;;8.30;1.83;;;3.50;99.90;;;;;;4974301;28;36497;-79
2024/01/14 21:44:52;;;;;;;5.93;0.80;;;3.50;99.90;;;;;;4983574;28;37859;-79
2024/01/14 21:47:18;;;;;;;7.13;1.03;;;3.60;99.90;;;;;;4973527;28;37847;-79
2024/01/14 21:49:44;;;;;;;7.40;0.90;;;3.60;99.90;;;;;;4966120;28;38184;-78
2024/01/14 21:52:10;;;;;;;9.70;1.00;;;3.40;99.90;;;;;;4971327;28;38382;-79
2024/01/14 21:54:38;;;;;;;6.97;0.87;;;3.30;99.90;;;;;;4971637;28;38595;-79
2024/01/14 21:57:05;;;;;;;8.83;1.53;;;3.20;99.90;;;;;;4967005;28;38785;-80
2024/01/14 21:59:31;;;;;;;11.53;1.73;;;3.20;99.90;;;;;;4979371;28;37582;-79
2024/01/14 22:01:57;;;;;;;6.40;1.40;;;3.20;99.90;;;;;;5000035;28;36541;-79
2024/01/14 22:04:24;;;;;;;8.30;0.97;;;3.20;99.90;;;;;;4968033;28;38533;-79
2024/01/14 22:06:52;;;;;;;14.00;1.60;;;3.30;99.90;;;;;;4960873;28;37247;-78
2024/01/14 22:09:19;;;;;;;15.13;1.90;;;3.30;99.90;;;;;;4991608;28;37316;-78
2024/01/14 22:11:45;;;;;;;15.20;1.37;;;3.30;99.90;;;;;;4967942;28;36287;-78
2024/01/14 22:14:11;;;;;;;11.93;1.00;;;3.30;99.90;;;;;;4971405;28;38229;-78
2024/01/14 22:16:37;;;;;;;15.90;1.43;;;3.20;99.90;;;;;;4965048;28;36970;-78
2024/01/14 22:19:06;;;;;;;7.50;1.40;;;3.20;99.90;;;;;;4959271;28;38633;-78
2024/01/14 22:21:34;;;;;;;7.80;1.13;;;3.10;99.90;;;;;;4961896;28;36517;-78
2024/01/14 22:24:00;;;;;;;8.83;1.17;;;3.10;99.90;;;;;;4969763;28;39034;-78
2024/01/14 22:26:26;;;;;;;6.47;1.13;;;3.10;99.90;;;;;;4965951;28;37784;-78
2024/01/14 22:28:56;;;;;;;9.57;1.43;;;3.10;99.90;;;;;;4969156;28;38184;-79
2024/01/14 22:31:24;;;;;;;9.27;2.13;;;3.10;99.90;;;;;;4977104;28;36671;-79
2024/01/14 22:33:52;;;;;;;22.20;2.80;;;3.00;99.90;;;;;;4987393;28;37918;-79
2024/01/14 22:36:18;;;;;;;11.20;1.90;;;3.00;99.90;;;;;;4972851;28;38983;-79
2024/01/14 22:38:45;;;;;;;7.27;1.33;;;3.10;99.90;;;;;;4971428;28;37162;-77
2024/01/14 22:41:12;;;;;;;10.73;1.80;;;3.10;99.90;;;;;;4970294;28;36631;-78
2024/01/14 22:43:38;;;;;;;8.67;1.53;;;3.30;99.90;;;;;;4967995;28;37803;-78
2024/01/14 22:46:04;;;;;;;11.50;1.67;;;3.40;99.90;;;;;;4969098;28;39379;-78
2024/01/14 22:48:31;;;;;;;13.77;1.93;;;3.40;99.90;;;;;;4979386;28;38171;-79
2024/01/14 22:50:58;;;;;;;14.47;2.03;;;3.50;99.90;;;;;;4979835;28;37118;-78
2024/01/14 22:53:24;;;;;;;7.10;1.63;;;3.50;99.90;;;;;;4981590;28;38422;-78
2024/01/14 22:55:53;;;;;;;14.43;1.63;;;3.50;99.90;;;;;;4969886;28;37095;-79